Ride Results

Sparkler (29-08-2009)
Ride distance: 80.0 km

Outcomes - Sparkler (29-08-2009)
Division No. of Entries Retired / DNE Completed Withdrawn Ineligible V/O Percentage Completed
HW 12 - 9 1 - 2 75.00%
MW 35 - 25 1 2 7 71.43%
LW 34 - 30 1 - 3 88.24%
JN 14 - 11 1 - 2 78.57%
Totals 95 - 75 4 2 14 78.95%
Results - Sparkler (29-08-2009)
No. Rider Horse Place Time Leg Speeds Total
Km/Hr
H/R bpm
Heavyweight
166 Mark Nimon Stratharlie Sheriff 1 (BC) 4:47:25 17.0, 16.3 16.70 35, 45, 42 (Avg:43)
179 Paul Lengronne Johroy Custom Made 2 5:00:03 16.3, 15.6 16.00 39, 49, 53 (Avg:51)
178 Peter Birch Hillbrae May 3 5:17:33 15.9, 14.3 15.12 36, 46, 52 (Avg:49)
132 Maurice Gray Chazar Fire Nic Ice 4 5:26:08 14.4, 14.9 14.72 33, 38, 47 (Avg:42)
182 Matthew Gadsby Country Gentleman 5 6:18:20 13.2, 12.1 12.69 34, 48, 54 (Avg:51)
138 Irene Alletsgruber Chaswyk Ramazzotti 6 6:30:10 13.2, 11.5 12.30 35, 40, 42 (Avg:41)
126 Michael Combe Milgarra Dripptu 7 6:42:29 12.4, 11.4 11.93 34, 42, 44 (Avg:43)
109 Gavin Bartlett Matta Mia Kizil 8 7:51:00 10.3, 10.0 10.19 37, 43, 44 (Avg:43)
121 Kevin Moss Palmgold Bravado 8 7:51:00 10.3, 10.0 10.19 36, 52, 60 (Avg:56)
198 Graham Ellison Ffire Storm Lame L1 0:00:00 12.7 - 36, 54 (Avg:54)
176 Chris Nichols Bellarine Moselle Lame L1 0:00:00 12.7 - 40, 48 (Avg:48)
190 Emma Quilter Fortaleza Loki Withdrawn L1 0:00:00 - - 35, 39 (Avg:39)
Middleweight
174 Scott Hill Kalkadoon Kismet 1 (BC) 4:24:10 18.7, 17.6 18.17 43, 41, 46 (Avg:43)
160 Gayle Holmes Captain's Creek Rupert 2 4:43:46 17.3, 16.4 16.92 37, 41, 48 (Avg:44)
123 Gerard Bou Keisha 3 4:55:05 16.7, 15.8 16.27 32, 39, 39 (Avg:39)
180 Marion Lengronne Banjo Star 4 5:00:30 16.8, 15.2 15.97 37, 53, 55 (Avg:54)
151 Angela Head Bourhani Albaraq 5 5:04:39 16.6, 14.9 15.76 35, 45, 45 (Avg:45)
191 Caroline Fitzgerald Lanamere Femmara 6 5:27:04 16.7, 13.0 14.68 31, 44, 47 (Avg:45)
193 Raewyn Carter Maioro Fire 7 6:01:50 14.2, 12.3 13.27 31, 40, 40 (Avg:40)
194 Errol Watt Maioro Nakita 8 6:01:55 14.2, 12.3 13.26 38, 46, 47 (Avg:46)
167 Sk Saeed BinMaktoum Yul-Arai Hajeel 9 6:17:23 13.2, 12.2 12.72 29, 44, 48 (Avg:46)
145 Jess Langridge Meltharina M'arui 10 6:24:25 13.1, 11.9 12.49 37, 45, 46 (Avg:45)
152 Donna Brooker Hirstglen Fargo 11 6:27:06 12.2, 12.5 12.40 36, 42, 47 (Avg:44)
195 Cheryl Gaedtke Bacchante Silver 12 6:29:45 13.2, 11.5 12.32 31, 48, 42 (Avg:45)
177 Debbie Edwards Agape Evezra 13 6:30:10 12.7, 11.8 12.30 35, 45, 45 (Avg:45)
188 Billie Barron Sahala Abu Simbel 14 6:33:59 12.8, 11.5 12.18 30, 34, 42 (Avg:38)
169 Jackie Gilks Reid River Reflectshine 15 6:34:32 12.8, 11.5 12.17 34, 47, 48 (Avg:47)
125 Samantha Yates Splendacrest Perfection 16 6:34:45 12.7, 11.6 12.16 40, 48, 52 (Avg:50)
199 Shelley Chapman Woodbourne Cloud 17 6:36:50 12.7, 11.4 12.10 34, 43, 45 (Avg:44)
173 Ken Moir Cameo Helmzman 18 6:47:36 12.0, 11.4 11.78 33, 38, 49 (Avg:43)
113 Ouida Ratapu Jessie Ima James 19 7:05:29 12.5, 10.2 11.28 36, 43, 46 (Avg:44)
114 Angela Waldock Anzaq 19 7:05:29 12.5, 10.2 11.28 37, 42, 44 (Avg:43)
130 Stephen Gray Shannons Psyche 21 7:50:00 12.4, 8.6 10.21 42, 54, 56 (Avg:55)
197 Yvonne Hain Milgarra Sinzano 21 7:50:00 12.4, 8.6 10.21 39, 49, 45 (Avg:47)
189 Camille Champagne-Bargenquast Brookleigh Quasar 23 7:51:00 10.4, 9.9 10.19 35, 44, 50 (Avg:47)
141 Pierre DeWit Otis te 23 7:51:00 9.3, 11.2 10.19 39, 53, 51 (Avg:52)
105 Ruth Dixon El Romero 23 7:51:00 11.4, 9.1 10.19 38, 43, 47 (Avg:45)
144 Ronan Cahill Matrix Maker Disqualified L2 0:00:00 20.0, 25.1 - 39, 49, 40 (Avg:44)
134 Rosemary Hull Bashan The Jester Heart Rate L2 0:00:00 12.7, 11.5 - 39, 48, 70 (Avg:59)
148 Ute Jordan Birru Avishaah Lame L2 0:00:00 13.1, 12.2 - 30, 34, 40 (Avg:37)
156 Akhmed Pshunov Mt Eerwah Siridion Disqualified L2 0:00:00 19.9, 25.1 - 35, 48, 59 (Avg:53)
181 Kimberley Ryan Harmony Park Spirit Lame L2 0:00:00 17.5, 15.1 - 32, 43, 49 (Avg:46)
157 Anne Barlow Sa-har Shetari Lame L1 0:00:00 12.1 - 38, 46 (Avg:46)
106 Sandy Hose Meltharina Mercury Heart Rate L1 0:00:00 11.4 - 34, 59 (Avg:59)
171 Sonya Ryan Lindall Farvio Withdrawn L1 0:00:00 - - 34, 43 (Avg:43)
163 Suzanne Smith Ronekzus Honey Metabolics L1 0:00:00 12.9 - 36, 46 (Avg:46)
183 Dan Winkel Zayelle's Showgirl Heart Rate L1 0:00:00 12.7 - 29, 62 (Avg:62)
Lightweight
187 Bec Miller Hirstglen Conquistador 1 (BC) 4:01:25 19.8, 19.8 19.88 33, 51, 46 (Avg:48)
133 Christine Christie Reg 2 4:39:25 18.0, 16.4 17.18 31, 38, 48 (Avg:43)
104 Carla Jones Mt Eerwah Anastazia 2 4:39:25 16.6, 17.7 17.18 29, 38, 43 (Avg:40)
103 Chelsea Moore Mt Eerwah Nikita 2 4:39:25 16.6, 17.7 17.18 34, 44, 38 (Avg:41)
170 Bobbi Lochtenberg Matta Mia Dollar 5 4:55:05 16.3, 16.1 16.27 38, 49, 49 (Avg:49)
150 Renae Kuhn Splitters Creek Bundy 6 5:04:49 16.6, 14.9 15.75 34, 42, 41 (Avg:41)
137 Anne Jones Tongarra Red Cloud 7 5:17:03 16.3, 14.0 15.14 31, 41, 47 (Avg:44)
107 Clio Rauch Willowvale Sirahh 8 5:26:21 15.6, 13.8 14.71 34, 41, 43 (Avg:42)
192 Brooke Warner Crysari 9 5:27:04 15.9, 13.5 14.68 31, 39, 44 (Avg:41)
108 Kym Dyball Anniversary Wish 10 5:47:33 14.5, 13.1 13.81 39, 47, 54 (Avg:50)
164 Karen Mendoza Allyndah Expectation 11 6:02:20 14.4, 12.2 13.25 32, 48, 60 (Avg:54)
140 Hannah Dunkersloot Larabi Rummanni 12 6:18:30 13.1, 12.2 12.68 36, 48, 49 (Avg:48)
146 Celine Howe Gheerulla Espresso 13 6:24:17 13.1, 11.9 12.49 39, 49, 48 (Avg:48)
131 Jeanna Maher Chance 14 6:24:45 13.1, 11.8 12.48 30, 40, 42 (Avg:41)
110 Kaylea Maher Chad 15 6:24:48 13.1, 11.8 12.47 34, 48, 52 (Avg:50)
117 Shelley-ann Kimber Brookleigh Bravo 16 6:27:10 13.1, 11.7 12.40 42, 47, 52 (Avg:49)
135 Andrea Mulhare Chaswyck The Maverick 17 6:30:10 13.2, 11.5 12.30 35, 43, 57 (Avg:50)
116 Emma Shone Brookleigh Snoopy 18 6:31:10 12.7, 11.8 12.27 36, 44, 55 (Avg:49)
120 Jean Walsh Brookleigh Abacus 18 6:31:10 12.7, 11.8 12.27 37, 45, 50 (Avg:47)
168 Leigh Rich Leondon Maritz 20 6:34:04 12.8, 11.5 12.18 29, 40, 41 (Avg:40)
118 Saasha Grogan Cajun 21 6:38:53 12.2, 11.8 12.03 38, 47, 51 (Avg:49)
158 Tanya Stoffel Maverick 22 6:41:26 11.9, 12.0 11.96 39, 45, 49 (Avg:47)
128 Caroline Windle Sarina Rosetta 23 6:42:34 12.4, 11.3 11.92 39, 44, 52 (Avg:48)
161 Cathy Herve Hilbrae Maxine 24 6:47:36 12.1, 11.4 11.78 39, 40, 46 (Avg:43)
115 Patrice Fenech Indiana Allias 25 7:05:29 12.5, 10.2 11.28 38, 42, 44 (Avg:43)
175 Susan Kelman Jayhal Moonlight 26 7:45:00 11.4, 9.4 10.32 31, 42, 44 (Avg:43)
149 Mary Sims Bonnie Rose 26 7:45:00 11.4, 9.4 10.32 38, 44, 46 (Avg:45)
143 Robin Young Melawondi 26 7:45:00 11.4, 9.4 10.32 33, 49, 49 (Avg:49)
122 Jill Colwell Aloha Desert Opal 29 7:51:00 10.3, 10.0 10.19 33, 40, 47 (Avg:43)
142 Maxine Leary Cinderella te 29 7:51:00 12.1, 8.7 10.19 37, 45, 47 (Avg:46)
165 Sue Sutcliffe De Sharvell Sharkeem Heart Rate L2 0:00:00 17.0, 16.8 - 31, 42, 68 (Avg:55)
129 Judy Battams Nangamba Alisaar Withdrawn L1 0:00:00 - - 30, 48 (Avg:48)
112 Karen Winkel Xanadu Barabbous Lame L1 0:00:00 18.0 - 31, 49 (Avg:49)
184 Sayed mohammed Abbas Lenny Lame P/R 0:00:00 - - 37
Junior
162 Amaya Thomas Rowallan Cyprus 1 3:48:18 19.9, 22.2 21.02 33, 46, 49 (Avg:47)
185 Jessyca Dakin Porcelain Doll 2 4:01:32 19.8, 19.8 19.87 31, 46, 45 (Avg:45)
139 Jamie Green Hirstglen Maybe 3 (BC) 4:40:58 17.2, 16.9 17.08 32, 47, 42 (Avg:44)
136 Jade Vergis Meltharina Maralyc 4 5:17:03 16.3, 14.0 15.14 37, 42, 51 (Avg:46)
196 David Anderson Jnr Hillbrae Kaszan 5 6:17:23 13.2, 12.2 12.72 34, 42, 48 (Avg:45)
127 Steph Tulk Mt Eerwah Silver Mariner 6 6:31:47 12.7, 11.7 12.25 31, 48, 48 (Avg:48)
159 Lisa Stoffel Captain Creek Tall Boy 7 6:41:26 11.9, 12.0 11.96 35, 48, 51 (Avg:49)
153 Sharn Brooker Hirstglen Goldburg 8 6:52:12 11.5, 11.6 11.64 46, 42, 0 (Avg:21)
154 Samantha Brooker Hirstglen Zeus 8 6:52:12 11.5, 11.6 11.64 36, 41, 44 (Avg:42)
155 Tasha Jeremy Hirstglen Mack 8 6:52:12 11.5, 11.6 11.64 31, 43, 45 (Avg:44)
101 Cindy Williams Luack Kayla 11 7:51:00 11.4, 9.1 10.19 32, 48, 49 (Avg:48)
124 Tarnia Kittel Belgari Bentley Heart Rate L2 0:00:00 16.3, 14.7 - 41, 49, 68 (Avg:58)
102 Candice Gurtner Rodborough Cisko Heart Rate L1 0:00:00 12.7 - 43, 72 (Avg:72)
186 Lainie Zischke Allira Park Wings Of Fire Withdrawn L1 0:00:00 - - 31, 43 (Avg:43)